< < Back
Terminal Aerodrome Forecast


Current Version              Previous Versions:   1  2  3  4  5  6  7  8  9  

Terminal Aerodrome Forecast

749
FTUS44 KMRX 302330
TAFCHA
TAF
KCHA 302330Z 3100/3124 01008KT P6SM SKC
     FM311500 02011G17KT P6SM SKC=



Latest METAR

152
SAUS80 KWBC 312100 RRA
MTRCHA
METAR KCHA 312053Z 36012KT 10SM FEW060 31/16 A2998 RMK AO2 SLP144
T03110156 57020


USA.gov is the U.S. government's official web portal to all federal, state and local government web resources and services.